createdAt,value
2023-02-17T00:04:13.674Z,100345.20
2023-02-17T00:09:23.343Z,100341.00
2023-02-17T00:14:33.187Z,100347.40
2023-02-17T00:19:43.585Z,100351.80
2023-02-17T00:24:53.120Z,100342.60
2023-02-17T00:30:02.951Z,100343.20
2023-02-17T00:35:13.195Z,100330.00
2023-02-17T00:40:23.247Z,100333.80
2023-02-17T00:45:33.094Z,100324.20
2023-02-17T00:50:43.081Z,100327.40
2023-02-17T00:55:53.078Z,100321.40
2023-02-17T01:01:04.032Z,100306.80
2023-02-17T01:06:23.788Z,100306.40
2023-02-17T01:11:35.880Z,100295.00
2023-02-17T01:16:49.207Z,100307.60
2023-02-17T01:21:59.107Z,100301.20
2023-02-17T01:27:09.062Z,100296.40
2023-02-17T01:32:18.932Z,100303.80
2023-02-17T01:37:28.583Z,100296.40
2023-02-17T01:42:38.243Z,100283.80
2023-02-17T01:47:50.781Z,100284.40
2023-02-17T01:53:02.212Z,100275.40
2023-02-17T01:58:17.313Z,100283.80
2023-02-17T02:03:28.943Z,100288.00
2023-02-17T02:08:52.913Z,100276.60
2023-02-17T02:14:04.704Z,100276.40
2023-02-17T02:19:48.069Z,100259.80
2023-02-17T02:25:17.730Z,100240.20
2023-02-17T02:31:03.511Z,100246.80
2023-02-17T02:36:22.415Z,100244.20
2023-02-17T02:41:36.479Z,100241.80
2023-02-17T02:46:46.485Z,100244.20
2023-02-17T02:52:09.384Z,100234.00
2023-02-17T02:57:45.294Z,100226.40
2023-02-17T03:03:00.817Z,100232.00
2023-02-17T03:08:19.240Z,100230.60
2023-02-17T03:13:29.122Z,100227.80
2023-02-17T03:18:39.492Z,100223.20
2023-02-17T03:23:49.512Z,100221.20
2023-02-17T03:28:59.119Z,100218.40
2023-02-17T03:34:10.055Z,100215.20
2023-02-17T03:39:19.882Z,100206.60
2023-02-17T03:44:29.542Z,100202.60
2023-02-17T03:49:39.014Z,100195.60
2023-02-17T03:54:49.137Z,100189.40
2023-02-17T03:59:58.882Z,100174.20
2023-02-17T04:05:09.593Z,100170.80
2023-02-17T04:10:19.689Z,100159.40
2023-02-17T04:15:30.132Z,100164.00
2023-02-17T04:20:40.026Z,100156.00
2023-02-17T04:25:50.576Z,100142.80
2023-02-17T04:31:03.007Z,100131.80
2023-02-17T04:36:13.731Z,100127.80
2023-02-17T04:41:23.440Z,100123.40
2023-02-17T04:46:33.131Z,100127.00
2023-02-17T04:51:42.768Z,100126.80
2023-02-17T04:56:52.554Z,100127.20
2023-02-17T05:02:02.303Z,100125.60
2023-02-17T05:07:12.102Z,100120.60
2023-02-17T05:12:21.689Z,100113.20
2023-02-17T05:17:31.728Z,100120.20
2023-02-17T05:22:41.447Z,100116.60
2023-02-17T05:27:50.939Z,100115.60
2023-02-17T05:33:01.332Z,100110.80
2023-02-17T05:38:10.895Z,100115.20
2023-02-17T05:43:20.431Z,100112.60
2023-02-17T05:48:30.285Z,100111.60
2023-02-17T05:53:39.922Z,100098.60
2023-02-17T05:58:49.629Z,100096.40
2023-02-17T06:03:59.194Z,100097.40
2023-02-17T06:09:09.032Z,100090.00
2023-02-17T06:14:18.909Z,100080.80
2023-02-17T06:19:29.080Z,100070.80
2023-02-17T06:24:38.695Z,100071.00
2023-02-17T06:29:48.496Z,100077.80
2023-02-17T06:34:58.312Z,100070.80
2023-02-17T06:40:09.402Z,100064.00
2023-02-17T06:45:19.402Z,100076.60
2023-02-17T06:50:29.438Z,100064.40
2023-02-17T06:55:39.914Z,100069.40
2023-02-17T07:00:49.786Z,100068.00
2023-02-17T07:06:04.011Z,100070.20
2023-02-17T07:11:15.888Z,100067.60
2023-02-17T07:16:25.691Z,100055.40
2023-02-17T07:21:35.321Z,100056.00
2023-02-17T07:26:45.629Z,100050.60
2023-02-17T07:31:55.351Z,100046.00
2023-02-17T07:37:05.258Z,100050.00
2023-02-17T07:42:15.112Z,100039.20
2023-02-17T07:47:24.923Z,100038.00
2023-02-17T07:52:34.652Z,100044.40
2023-02-17T07:57:44.527Z,100036.60
2023-02-17T08:02:54.248Z,100035.20
2023-02-17T08:08:21.426Z,100023.00
2023-02-17T08:13:32.148Z,100015.00
2023-02-17T08:18:42.127Z,100021.60
2023-02-17T08:23:51.882Z,100021.40
2023-02-17T08:29:01.881Z,100019.40
2023-02-17T08:34:13.810Z,100005.60
2023-02-17T08:39:24.448Z,100002.60
2023-02-17T08:44:36.136Z,99998.20
2023-02-17T08:49:46.002Z,99994.40
2023-02-17T08:54:59.822Z,99989.00
2023-02-17T09:00:16.434Z,99985.20
2023-02-17T09:05:27.132Z,99969.60
2023-02-17T09:10:36.890Z,99968.80
2023-02-17T09:15:47.047Z,99961.60
2023-02-17T09:20:58.786Z,99951.00
2023-02-17T09:26:11.468Z,99951.20
2023-02-17T09:31:24.989Z,99958.60
2023-02-17T09:36:42.570Z,99940.20
2023-02-17T09:41:55.590Z,99940.60
2023-02-17T09:47:12.854Z,99940.20
2023-02-17T09:52:35.099Z,99929.40
2023-02-17T09:57:55.242Z,99912.80
2023-02-17T10:03:15.909Z,99912.20
2023-02-17T10:08:33.944Z,99904.60
2023-02-17T10:13:48.046Z,99901.60
2023-02-17T10:19:08.148Z,99890.00
2023-02-17T10:24:18.023Z,99891.60
2023-02-17T10:29:51.661Z,99879.60
2023-02-17T10:35:17.468Z,99875.00
2023-02-17T10:40:29.578Z,99860.20
2023-02-17T10:45:43.481Z,99843.60
2023-02-17T10:50:54.976Z,99840.80
2023-02-17T10:56:14.736Z,99822.60
2023-02-17T11:01:24.796Z,99820.00
2023-02-17T11:06:39.269Z,99805.20
2023-02-17T11:12:02.786Z,99785.60
2023-02-17T11:17:27.704Z,99758.20
2023-02-17T11:22:44.811Z,99747.80
2023-02-17T11:27:59.366Z,99725.00
2023-02-17T11:33:22.891Z,99714.20
2023-02-17T11:38:43.798Z,99698.40
2023-02-17T11:44:01.785Z,99682.80
2023-02-17T11:50:03.388Z,99673.00
2023-02-17T11:55:26.069Z,99648.00
2023-02-17T12:00:52.728Z,99629.20
2023-02-17T12:06:19.855Z,99628.80
2023-02-17T12:11:38.988Z,99628.80
2023-02-17T12:17:04.198Z,99617.40
2023-02-17T12:22:24.415Z,99601.20
2023-02-17T12:27:51.370Z,99583.60
2023-02-17T12:33:36.573Z,99568.00
2023-02-17T12:38:54.854Z,99559.20
2023-02-17T12:44:14.219Z,99547.00
2023-02-17T12:49:31.331Z,99537.60
2023-02-17T12:54:48.187Z,99522.80
2023-02-17T13:00:00.431Z,99512.80
2023-02-17T13:05:23.728Z,99509.00
2023-02-17T13:10:42.066Z,99493.60
2023-02-17T13:16:02.989Z,99480.40
2023-02-17T13:21:34.150Z,99465.40
2023-02-17T13:26:45.834Z,99454.00
2023-02-17T13:31:59.145Z,99442.40
2023-02-17T13:37:39.518Z,99434.40
2023-02-17T13:42:51.241Z,99424.00
2023-02-17T13:48:12.699Z,99429.80
2023-02-17T13:53:37.833Z,99413.00
2023-02-17T13:58:47.814Z,99397.60
2023-02-17T14:04:00.378Z,99388.00
2023-02-17T14:09:24.208Z,99369.60
2023-02-17T14:14:38.846Z,99359.00
2023-02-17T14:19:51.939Z,99342.20
2023-02-17T14:25:08.654Z,99321.20
2023-02-17T14:30:33.739Z,99303.40
2023-02-17T14:35:53.371Z,99284.80
2023-02-17T14:41:03.369Z,99268.00
2023-02-17T14:46:14.764Z,99255.00
2023-02-17T14:51:26.973Z,99243.40
2023-02-17T14:56:42.313Z,99228.80
2023-02-17T15:01:52.348Z,99212.20
2023-02-17T15:07:02.311Z,99202.40
2023-02-17T15:12:19.408Z,99191.20
2023-02-17T15:17:29.223Z,99174.00
2023-02-17T15:22:42.594Z,99171.40
2023-02-17T15:27:52.642Z,99170.20
2023-02-17T15:33:02.889Z,99147.80
2023-02-17T15:38:16.686Z,99150.00
2023-02-17T15:48:52.461Z,99124.00
2023-02-17T15:54:02.313Z,99110.80
2023-02-17T15:59:19.865Z,99091.20
2023-02-17T16:04:30.446Z,99065.80
2023-02-17T16:09:40.718Z,99053.20
2023-02-17T16:14:50.733Z,99030.80
2023-02-17T16:20:00.569Z,99032.40
2023-02-17T16:25:12.628Z,99047.60
2023-02-17T16:30:26.434Z,99043.60
2023-02-17T16:35:37.353Z,99016.20
2023-02-17T16:40:52.039Z,98994.60
2023-02-17T16:46:06.730Z,98979.20
2023-02-17T16:51:16.661Z,98967.00
2023-02-17T16:56:36.238Z,98967.80
2023-02-17T17:01:46.622Z,98965.20
2023-02-17T17:06:57.296Z,98964.20
2023-02-17T17:12:07.811Z,98948.60
2023-02-17T17:17:17.701Z,98924.20
2023-02-17T17:22:27.658Z,98923.60
2023-02-17T17:27:38.172Z,98914.20
2023-02-17T17:32:48.341Z,98898.00
2023-02-17T17:37:59.006Z,98897.00
2023-02-17T17:43:09.087Z,98890.00
2023-02-17T17:48:20.896Z,98875.40
2023-02-17T17:53:30.712Z,98855.80
2023-02-17T17:58:40.555Z,98877.20
2023-02-17T18:03:51.623Z,98868.00
2023-02-17T18:09:07.446Z,98864.40
2023-02-17T18:14:19.363Z,98859.80
2023-02-17T18:19:30.854Z,98852.00
2023-02-17T18:24:41.504Z,98858.00
2023-02-17T18:29:51.515Z,98840.60
2023-02-17T18:35:01.567Z,98833.60
2023-02-17T18:40:15.757Z,98818.60
2023-02-17T18:45:26.454Z,98816.80
2023-02-17T18:50:37.174Z,98808.80
2023-02-17T18:55:47.058Z,98798.40
2023-02-17T19:00:56.843Z,98794.60
2023-02-17T19:06:16.201Z,98787.60
2023-02-17T19:11:27.562Z,98778.20
2023-02-17T19:16:39.086Z,98782.00
2023-02-17T19:21:48.788Z,98772.20
2023-02-17T19:26:58.511Z,98768.40
2023-02-17T19:32:09.621Z,98759.20
2023-02-17T19:37:19.522Z,98755.00
2023-02-17T19:42:29.440Z,98742.00
2023-02-17T19:47:39.036Z,98732.20
2023-02-17T19:52:49.370Z,98733.20
2023-02-17T19:57:59.154Z,98735.80
2023-02-17T20:03:09.405Z,98783.00
2023-02-17T20:08:19.450Z,98774.80
2023-02-17T20:13:34.722Z,98756.60
2023-02-17T20:18:52.470Z,98749.00
2023-02-17T20:24:03.176Z,98734.00
2023-02-17T20:29:14.008Z,98766.00
2023-02-17T20:34:33.423Z,98767.60
2023-02-17T20:39:43.463Z,98760.80
2023-02-17T20:44:54.768Z,98770.40
2023-02-17T20:50:09.500Z,98777.00
2023-02-17T20:55:19.996Z,98772.80
2023-02-17T21:00:31.786Z,98799.40
2023-02-17T21:05:41.803Z,98809.40
2023-02-17T21:10:52.053Z,98820.20
2023-02-17T21:16:02.034Z,98822.60
2023-02-17T21:21:12.377Z,98822.80
2023-02-17T21:26:22.341Z,98818.80
2023-02-17T21:31:32.831Z,98794.20
2023-02-17T21:36:42.843Z,98780.40
2023-02-17T21:41:54.301Z,98768.80
2023-02-17T21:47:04.244Z,98776.80
2023-02-17T21:52:14.055Z,98766.20
2023-02-17T21:57:23.974Z,98760.80
2023-02-17T22:02:34.204Z,98758.40
2023-02-17T22:07:43.999Z,98751.20
2023-02-17T22:12:53.803Z,98738.60
2023-02-17T22:18:04.248Z,98738.60
2023-02-17T22:23:14.149Z,98736.80
2023-02-17T22:28:23.853Z,98731.80
2023-02-17T22:33:34.100Z,98720.80
2023-02-17T22:38:44.000Z,98727.20
2023-02-17T22:43:55.519Z,98726.60
2023-02-17T22:49:05.558Z,98727.60
2023-02-17T22:54:15.412Z,98722.80
2023-02-17T22:59:25.151Z,98709.40
2023-02-17T23:04:34.887Z,98713.40
2023-02-17T23:09:44.715Z,98713.80
2023-02-17T23:14:54.606Z,98722.40
2023-02-17T23:20:04.849Z,98723.60
2023-02-17T23:25:16.784Z,98722.40
2023-02-17T23:30:28.248Z,98711.80
2023-02-17T23:35:45.151Z,98704.60
2023-02-17T23:40:56.524Z,98697.60
2023-02-17T23:46:07.820Z,98692.00
2023-02-17T23:51:21.391Z,98692.00
2023-02-17T23:56:34.696Z,98685.20
